Giove Jet — IJNX — position and weather

sailwx.info

Track history (hours):
 
Tides and Currents Weather Stations Pressure Air Temp Water Temp Dewpoint Dewpoint Depression Visibility Wind Speed Wind Dir Waves Ship Positions

Giove Jet

Last reported at 2015-Apr-19 16:33 UTC. Time now 2015-Apr-20 00:46 UTC.
Position N 40°33' E 014°14'.

Length 33 m; draft 1.5 m.

Type: Ship. MMSI: 247049500.

Date/timePositionNaut miles runAvg speedWind from/ knotsBaromVisibWave heightAir tempDewpointWater temp
2015-Apr-19 16:33N 40°33' E 014°14'8 1.5
2015-Apr-19 11:22N 40°38' E 014°23'8 5.9
2015-Apr-19 10:05N 40°33' E 014°15'1617.1
2015-Apr-19 09:09N 40°49' E 014°17'1211.1
2015-Apr-19 08:04N 40°38' E 014°23'1213.7
2015-Apr-19 07:10N 40°49' E 014°17'911.7
2015-Apr-19 06:22N 40°41' E 014°22'10 0.7
2015-Apr-18 16:31N 40°33' E 014°14'8 1.9
2015-Apr-18 12:05N 40°39' E 014°23'1 2.2
2015-Apr-18 11:33N 40°38' E 014°23'8 7.7
2015-Apr-18 10:34N 40°33' E 014°14'8 7.9
2015-Apr-18 09:34N 40°38' E 014°23'1312.9
2015-Apr-18 08:34N 40°50' E 014°16'13 4.0
2015-Apr-18 05:14N 40°38' E 014°23'8 0.6
2015-Apr-17 16:33N 40°33' E 014°14'17 4.2
2015-Apr-17 12:32N 40°50' E 014°16'1313.3
2015-Apr-17 11:33N 40°38' E 014°23'8 7.6
2015-Apr-17 10:33N 40°33' E 014°14'8 8.5
2015-Apr-17 09:33N 40°40' E 014°22'1111.2
2015-Apr-17 08:33N 40°50' E 014°16'1211.9
2015-Apr-17 07:33N 40°39' E 014°22'1 0.6
2015-Apr-17 05:33N 40°38' E 014°23'7 0.6
2015-Apr-16 16:32N 40°34' E 014°15'12 1.7
2015-Apr-16 09:17N 40°46' E 014°18'  
2015-Apr-13 10:09N 40°34' E 014°15'  
2015-Apr-10 16:33N 40°33' E 014°14'  
Track history (hours):
 
Tides and Currents Weather Stations Pressure Air Temp Water Temp Dewpoint Dewpoint Depression Visibility Wind Speed Wind Dir Waves Ship Positions

Giove Jet

Last reported at 2015-Apr-19 16:33 UTC. Time now 2015-Apr-20 00:46 UTC.
Position N 40°33' E 014°14'.

Length 33 m; draft 1.5 m.

Type: Ship. MMSI: 247049500.

Date/timePositionNaut miles runAvg speedWind from/ knotsBaromVisibWave heightAir tempDewpointWater temp
2015-Apr-19 16:33N 40°33' E 014°14'8 1.5
2015-Apr-19 11:22N 40°38' E 014°23'8 5.9
2015-Apr-19 10:05N 40°33' E 014°15'1617.1
2015-Apr-19 09:09N 40°49' E 014°17'1211.1
2015-Apr-19 08:04N 40°38' E 014°23'1213.7
2015-Apr-19 07:10N 40°49' E 014°17'911.7
2015-Apr-19 06:22N 40°41' E 014°22'10 0.7
2015-Apr-18 16:31N 40°33' E 014°14'8 1.9
2015-Apr-18 12:05N 40°39' E 014°23'1 2.2
2015-Apr-18 11:33N 40°38' E 014°23'8 7.7
2015-Apr-18 10:34N 40°33' E 014°14'8 7.9
2015-Apr-18 09:34N 40°38' E 014°23'1312.9
2015-Apr-18 08:34N 40°50' E 014°16'13 4.0
2015-Apr-18 05:14N 40°38' E 014°23'8 0.6
2015-Apr-17 16:33N 40°33' E 014°14'17 4.2
2015-Apr-17 12:32N 40°50' E 014°16'1313.3
2015-Apr-17 11:33N 40°38' E 014°23'8 7.6
2015-Apr-17 10:33N 40°33' E 014°14'8 8.5
2015-Apr-17 09:33N 40°40' E 014°22'1111.2
2015-Apr-17 08:33N 40°50' E 014°16'1211.9
2015-Apr-17 07:33N 40°39' E 014°22'1 0.6
2015-Apr-17 05:33N 40°38' E 014°23'7 0.6
2015-Apr-16 16:32N 40°34' E 014°15'12 1.7
2015-Apr-16 09:17N 40°46' E 014°18'  
2015-Apr-13 10:09N 40°34' E 014°15'  
2015-Apr-10 16:33N 40°33' E 014°14'  

Dump ship's entire track history